Terminal Aerodrome Forecast
Issued by NWS Wilmington, OH

Home | Current Version | Previous Version | Text Only | Print | Product List | Glossary On
Versions: 1 2 3 4 5 6 7 8 9 10 11 12 13 14 15 16 17 18 19 20
000
FTUS41 KILN 101742
TAFDAY
TAF
KDAY 101742Z 1018/1118 26010KT P6SM OVC025
     FM102300 20006KT P6SM BKN080
     FM110300 14006KT P6SM VCSH OVC040
      TEMPO 1105/1108 4SM -SN OVC025
     FM111100 16008KT P6SM OVC040=

USA.gov is the U.S. government's official web portal to all federal, state and local government web resources and services.